createdAt,value
2018-12-04T00:00:50.174Z,99751.20
2018-12-04T00:03:16.265Z,99752.89
2018-12-04T00:05:42.284Z,99757.70
2018-12-04T00:08:08.432Z,99760.19
2018-12-04T00:10:34.544Z,99764.58
2018-12-04T00:13:00.688Z,99773.78
2018-12-04T00:15:26.688Z,99782.69
2018-12-04T00:17:52.736Z,99779.19
2018-12-04T00:20:18.729Z,99786.28
2018-12-04T00:22:44.684Z,99797.08
2018-12-04T00:25:10.780Z,99794.71
2018-12-04T00:27:36.812Z,99800.12
2018-12-04T00:30:03.361Z,99805.52
2018-12-04T00:32:29.372Z,99815.31
2018-12-04T00:34:55.376Z,99829.06
2018-12-04T00:37:21.301Z,99824.55
2018-12-04T00:39:47.352Z,99839.73
2018-12-04T00:42:13.349Z,99840.84
2018-12-04T00:44:39.397Z,99854.34
2018-12-04T00:47:05.390Z,99863.03
2018-12-04T00:49:31.329Z,99864.93
2018-12-04T00:51:57.344Z,99866.84
2018-12-04T00:54:23.381Z,99869.31
2018-12-04T00:56:49.384Z,99876.06
2018-12-04T00:59:15.432Z,99881.80
2018-12-04T01:01:41.429Z,99888.55
2018-12-04T01:04:07.476Z,99892.94
2018-12-04T01:06:33.473Z,99895.06
2018-12-04T01:08:59.517Z,99903.48
2018-12-04T01:11:25.522Z,99902.72
2018-12-04T01:13:51.664Z,99912.95
2018-12-04T01:16:17.680Z,99913.85
2018-12-04T01:18:43.725Z,99918.13
2018-12-04T01:21:09.723Z,99935.21
2018-12-04T01:23:35.765Z,99940.06
2018-12-04T01:26:01.761Z,99946.82
2018-12-04T01:28:27.812Z,99948.50
2018-12-04T01:30:53.808Z,99948.82
2018-12-04T01:33:19.877Z,99960.98
2018-12-04T01:35:45.852Z,99973.46
2018-12-04T01:38:11.886Z,99978.28
2018-12-04T01:40:37.924Z,99978.86
2018-12-04T01:43:03.924Z,99983.24
2018-12-04T01:45:30.069Z,99991.89
2018-12-04T01:47:56.081Z,99995.31
2018-12-04T01:50:22.125Z,100011.61
2018-12-04T01:52:48.124Z,100016.28
2018-12-04T01:55:14.161Z,100018.43
2018-12-04T01:57:40.161Z,100018.75
2018-12-04T02:00:06.211Z,100019.87
2018-12-04T02:02:32.210Z,100023.35
2018-12-04T02:11:43.565Z,100043.71
2018-12-04T02:14:09.552Z,100044.03
2018-12-04T02:16:35.602Z,100054.84
2018-12-04T02:19:01.608Z,100060.23
2018-12-04T02:21:27.645Z,100070.56
2018-12-04T02:23:53.651Z,100078.89
2018-12-04T02:26:19.802Z,100084.29
2018-12-04T02:28:45.905Z,100082.72
2018-12-04T02:31:11.933Z,100097.57
2018-12-04T02:33:37.946Z,100101.63
2018-12-04T02:36:03.999Z,100111.40
2018-12-04T02:38:30.095Z,100116.00
2018-12-04T02:40:56.232Z,100123.33
2018-12-04T02:43:22.249Z,100136.57
2018-12-04T02:45:48.391Z,100141.20
2018-12-04T02:48:14.488Z,100147.38
2018-12-04T02:50:40.433Z,100155.80
2018-12-04T02:53:06.438Z,100157.47
2018-12-04T02:55:32.493Z,100168.50
2018-12-04T02:57:58.484Z,100164.77
2018-12-04T03:00:24.601Z,100170.17
2018-12-04T03:02:50.541Z,100171.30
2018-12-04T03:05:16.553Z,100174.00
2018-12-04T03:07:42.589Z,100171.06
2018-12-04T03:10:08.598Z,100182.41
2018-12-04T03:12:34.634Z,100198.84
2018-12-04T03:15:00.745Z,100190.84
2018-12-04T03:17:26.782Z,100202.98
2018-12-04T03:19:52.989Z,100213.53
2018-12-04T03:22:18.946Z,100222.18
2018-12-04T03:24:45.040Z,100230.28
2018-12-04T03:27:11.088Z,100238.38
2018-12-04T03:29:37.085Z,100242.98
2018-12-04T03:32:03.137Z,100249.98
2018-12-04T03:34:29.125Z,100243.13
2018-12-04T03:36:55.074Z,100254.33
2018-12-04T03:39:21.084Z,100261.71
2018-12-04T03:41:47.132Z,100269.49
2018-12-04T03:44:13.136Z,100280.06
2018-12-04T03:46:39.252Z,100283.89
2018-12-04T03:49:05.200Z,100293.34
2018-12-04T03:51:31.186Z,100299.28
2018-12-04T03:53:57.142Z,100305.23
2018-12-04T03:56:23.237Z,100317.16
2018-12-04T03:58:49.280Z,100311.75
2018-12-04T04:01:15.281Z,100315.55
2018-12-04T04:03:41.325Z,100319.59
2018-12-04T04:06:07.328Z,100324.22
2018-12-04T04:08:33.373Z,100326.92
2018-12-04T04:10:59.376Z,100333.98
2018-12-04T04:13:25.421Z,100333.98
2018-12-04T04:15:51.421Z,100344.52
2018-12-04T04:18:17.569Z,100353.42
2018-12-04T04:20:43.564Z,100354.23
2018-12-04T04:23:09.517Z,100353.74
2018-12-04T04:25:35.635Z,100356.67
2018-12-04T04:28:01.662Z,100359.86
2018-12-04T04:30:27.661Z,100366.56
2018-12-04T04:32:53.700Z,100380.30
2018-12-04T04:35:19.710Z,100389.92
2018-12-04T04:37:45.734Z,100389.06
2018-12-04T04:40:11.879Z,100396.80
2018-12-04T04:42:37.877Z,100392.66
2018-12-04T04:45:04.473Z,100394.76
2018-12-04T04:47:30.448Z,100399.27
2018-12-04T04:49:56.585Z,100400.80
2018-12-04T04:52:22.580Z,100409.39
2018-12-04T04:54:48.522Z,100404.70
2018-12-04T04:57:14.730Z,100418.21
2018-12-04T04:59:40.787Z,100419.51
2018-12-04T05:02:06.789Z,100425.95
2018-12-04T05:04:32.825Z,100427.30
2018-12-04T05:06:58.829Z,100435.09
2018-12-04T05:09:24.869Z,100439.69
2018-12-04T05:11:50.883Z,100442.62
2018-12-04T05:14:16.916Z,100447.25
2018-12-04T05:16:42.925Z,100450.72
2018-12-04T05:19:08.966Z,100450.72
2018-12-04T05:21:34.961Z,100452.07
2018-12-04T05:24:01.014Z,100458.55
2018-12-04T05:26:27.010Z,100467.19
2018-12-04T05:28:53.057Z,100471.25
2018-12-04T05:31:19.078Z,100478.55
2018-12-04T05:33:45.082Z,100482.59
2018-12-04T05:36:11.117Z,100493.95
2018-12-04T05:38:37.125Z,100498.00
2018-12-04T05:41:03.177Z,100502.05
2018-12-04T05:43:29.165Z,100503.72
2018-12-04T05:45:55.109Z,100513.17
2018-12-04T05:48:21.115Z,100521.28
2018-12-04T05:50:47.157Z,100520.97
2018-12-04T05:53:18.872Z,100527.26
2018-12-04T05:55:44.833Z,100534.24
2018-12-04T05:58:10.836Z,100539.16
2018-12-04T06:00:36.885Z,100543.47
2018-12-04T06:03:02.893Z,100552.66
2018-12-04T06:05:28.933Z,100565.86
2018-12-04T06:07:55.033Z,100564.59
2018-12-04T06:10:21.072Z,100570.53
2018-12-04T06:12:47.089Z,100574.59
2018-12-04T06:15:13.132Z,100584.62
2018-12-04T06:17:39.121Z,100585.21
2018-12-04T06:20:05.201Z,100591.96
2018-12-04T06:22:31.170Z,100603.89
2018-12-04T06:24:57.216Z,100611.76
2018-12-04T06:27:23.204Z,100613.11
2018-12-04T06:29:49.132Z,100623.11
2018-12-04T06:32:15.073Z,100632.87
2018-12-04T06:34:41.080Z,100639.36
2018-12-04T06:37:07.120Z,100645.88
2018-12-04T06:39:33.128Z,100657.80
2018-12-04T06:41:59.169Z,100660.50
2018-12-04T06:44:25.170Z,100667.25
2018-12-04T06:46:51.208Z,100674.31
2018-12-04T06:49:17.126Z,100674.63
2018-12-04T06:51:43.153Z,100681.61
2018-12-04T06:54:09.161Z,100683.81
2018-12-04T06:56:35.205Z,100684.13
2018-12-04T06:59:02.237Z,100691.42
2018-12-04T07:01:28.276Z,100702.22
2018-12-04T07:03:54.285Z,100704.14
2018-12-04T07:06:20.312Z,100711.20
2018-12-04T07:08:46.345Z,100725.48
2018-12-04T07:11:12.368Z,100725.80
2018-12-04T07:13:38.373Z,100734.70
2018-12-04T07:16:04.417Z,100739.87
2018-12-04T07:18:30.417Z,100757.97
2018-12-04T07:20:56.453Z,100760.66
2018-12-04T07:23:22.470Z,100765.53
2018-12-04T07:25:48.505Z,100777.95
2018-12-04T07:28:14.504Z,100777.69
2018-12-04T07:30:40.534Z,100784.20
2018-12-04T07:33:06.681Z,100792.31
2018-12-04T07:35:32.677Z,100789.10
2018-12-04T07:37:58.849Z,100793.96
2018-12-04T07:40:24.824Z,100799.66
2018-12-04T07:42:50.873Z,100818.58
2018-12-04T07:45:16.873Z,100821.58
2018-12-04T07:47:42.917Z,100823.47
2018-12-04T07:50:08.840Z,100825.36
2018-12-04T07:52:34.856Z,100835.62
2018-12-04T07:55:00.870Z,100834.00
2018-12-04T07:57:26.907Z,100833.46
2018-12-04T07:59:53.016Z,100836.23
2018-12-04T08:02:19.056Z,100839.47
2018-12-04T08:04:45.057Z,100849.73
2018-12-04T08:07:11.101Z,100857.26
2018-12-04T08:09:37.101Z,100864.31
2018-12-04T08:12:03.272Z,100872.69
2018-12-04T08:14:29.256Z,100876.47
2018-12-04T08:16:55.298Z,100878.92
2018-12-04T08:19:21.353Z,100878.39
2018-12-04T08:21:47.333Z,100884.09
2018-12-04T08:24:13.341Z,100886.79
2018-12-04T08:26:40.202Z,100894.08
2018-12-04T08:29:06.233Z,100891.92
2018-12-04T08:31:32.225Z,100905.19
2018-12-04T08:33:58.164Z,100908.96
2018-12-04T08:36:24.173Z,100915.17
2018-12-04T08:38:50.224Z,100916.28
2018-12-04T08:41:16.220Z,100922.22
2018-12-04T08:43:42.305Z,100926.28
2018-12-04T08:46:08.272Z,100928.98
2018-12-04T08:48:34.308Z,100934.91
2018-12-04T08:51:00.306Z,100942.78
2018-12-04T08:53:26.249Z,100946.29
2018-12-04T08:55:52.253Z,100955.73
2018-12-04T08:58:18.304Z,100954.12
2018-12-04T09:00:44.312Z,100955.23
2018-12-04T09:03:10.361Z,100958.98
2018-12-04T09:05:36.345Z,100965.22
2018-12-04T09:08:02.519Z,100969.02
2018-12-04T09:10:28.612Z,100981.17
2018-12-04T09:12:54.637Z,100988.47
2018-12-04T09:16:24.108Z,100997.67
2018-12-04T09:18:50.109Z,101012.77
2018-12-04T09:21:16.244Z,101023.05
2018-12-04T09:23:42.424Z,101023.63
2018-12-04T09:26:08.534Z,101039.25
2018-12-04T09:28:34.696Z,101049.57
2018-12-04T09:31:00.781Z,101053.05
2018-12-04T09:33:26.932Z,101060.37
2018-12-04T09:35:53.033Z,101068.47
2018-12-04T09:38:19.077Z,101075.22
2018-12-04T09:40:45.077Z,101080.34
2018-12-04T09:43:11.138Z,101091.69
2018-12-04T09:45:37.233Z,101092.25
2018-12-04T09:48:03.245Z,101101.70
2018-12-04T09:50:29.188Z,101111.16
2018-12-04T09:52:55.204Z,101115.20
2018-12-04T09:55:21.232Z,101128.70
2018-12-04T09:57:47.239Z,101130.05
2018-12-04T10:00:13.385Z,101140.04
2018-12-04T10:02:39.386Z,101137.88
2018-12-04T10:05:05.444Z,101149.78
2018-12-04T10:07:31.433Z,101148.97
2018-12-04T10:10:00.574Z,101152.24
2018-12-04T10:12:25.416Z,101152.24
2018-12-04T10:14:51.369Z,101151.67
2018-12-04T10:17:17.371Z,101148.19
2018-12-04T10:19:43.413Z,101139.81
2018-12-04T10:22:09.413Z,101162.23
2018-12-04T10:24:35.460Z,101164.69
2018-12-04T10:27:01.453Z,101165.22
2018-12-04T10:29:27.401Z,101174.39
2018-12-04T10:31:56.186Z,101173.32
2018-12-04T10:34:21.373Z,101170.34
2018-12-04T10:36:47.513Z,101171.98
2018-12-04T10:39:13.525Z,101173.05
2018-12-04T10:41:39.561Z,101171.45
2018-12-04T10:44:05.564Z,101184.95
2018-12-04T10:46:31.612Z,101190.11
2018-12-04T10:48:57.612Z,101183.89
2018-12-04T10:51:23.653Z,101195.23
2018-12-04T10:53:49.672Z,101198.20
2018-12-04T10:56:15.705Z,101196.28
2018-12-04T10:58:41.701Z,101216.05
2018-12-04T11:01:07.752Z,101219.28
2018-12-04T11:03:33.753Z,101226.27
2018-12-04T11:05:59.796Z,101226.03
2018-12-04T11:08:25.841Z,101223.33
2018-12-04T11:10:51.941Z,101238.17
2018-12-04T11:13:17.945Z,101238.71
2018-12-04T11:15:44.073Z,101244.92
2018-12-04T11:18:10.105Z,101247.63
2018-12-04T11:20:36.117Z,101248.73
2018-12-04T11:23:02.164Z,101252.78
2018-12-04T11:25:28.336Z,101256.83
2018-12-04T11:27:54.413Z,101256.55
2018-12-04T11:30:20.417Z,101268.97
2018-12-04T11:32:46.452Z,101264.92
2018-12-04T11:35:12.449Z,101276.50
2018-12-04T11:37:38.400Z,101277.86
2018-12-04T11:40:04.509Z,101283.82
2018-12-04T11:42:30.556Z,101285.17
2018-12-04T11:44:56.549Z,101285.95
2018-12-04T11:47:22.696Z,101290.30
2018-12-04T11:49:48.802Z,101288.16
2018-12-04T11:52:14.851Z,101283.55
2018-12-04T11:54:40.873Z,101292.21
2018-12-04T11:57:07.004Z,101299.74
2018-12-04T11:59:33.020Z,101306.49
2018-12-04T12:01:59.180Z,101308.41
2018-12-04T12:04:25.162Z,101314.34
2018-12-04T12:06:51.264Z,101308.95
2018-12-04T12:09:17.309Z,101320.28
2018-12-04T12:11:43.309Z,101321.63
2018-12-04T12:14:09.257Z,101327.56
2018-12-04T12:16:35.365Z,101325.43
2018-12-04T12:19:01.405Z,101331.08
2018-12-04T12:21:27.506Z,101336.23
2018-12-04T12:23:53.649Z,101344.33
2018-12-04T12:26:19.656Z,101348.09
2018-12-04T12:28:45.850Z,101346.45
2018-12-04T12:31:11.907Z,101359.17
2018-12-04T12:33:38.057Z,101370.50
2018-12-04T12:36:04.053Z,101370.22
2018-12-04T12:38:30.096Z,101367.27
2018-12-04T12:40:56.111Z,101373.20
2018-12-04T12:43:22.248Z,101370.50
2018-12-04T12:45:48.248Z,101366.45
2018-12-04T12:48:14.274Z,101366.20
2018-12-04T12:50:40.221Z,101375.66
2018-12-04T12:53:06.324Z,101383.76
2018-12-04T12:55:32.390Z,101388.59
2018-12-04T12:57:58.356Z,101395.09
2018-12-04T13:00:24.338Z,101401.02
2018-12-04T13:02:50.309Z,101404.53
2018-12-04T13:05:16.452Z,101403.47
2018-12-04T13:07:42.455Z,101415.09
2018-12-04T13:10:08.924Z,101424.53
2018-12-04T13:12:34.908Z,101422.91
2018-12-04T13:15:01.068Z,101424.25
2018-12-04T13:17:27.053Z,101421.84
2018-12-04T13:19:53.005Z,101428.87
2018-12-04T13:22:19.106Z,101427.77
2018-12-04T13:24:45.157Z,101447.23
2018-12-04T13:27:11.257Z,101449.37
2018-12-04T13:29:37.328Z,101450.72
2018-12-04T13:32:03.396Z,101459.63
2018-12-04T13:34:29.532Z,101457.75
2018-12-04T13:36:55.692Z,101464.50
2018-12-04T13:39:21.791Z,101479.91
2018-12-04T13:41:47.928Z,101482.05
2018-12-04T13:44:13.933Z,101485.84
2018-12-04T13:46:40.214Z,101485.03
2018-12-04T13:49:06.278Z,101495.29
2018-12-04T13:51:32.327Z,101498.28
2018-12-04T13:53:58.429Z,101499.09
2018-12-04T13:56:24.483Z,101500.97
2018-12-04T13:58:50.580Z,101506.91
2018-12-04T14:01:16.612Z,101510.95
2018-12-04T14:03:42.618Z,101515.56
2018-12-04T14:06:08.565Z,101519.87
2018-12-04T14:08:34.578Z,101535.00
2018-12-04T14:11:00.739Z,101536.06
2018-12-04T14:13:26.889Z,101534.72
2018-12-04T14:15:56.761Z,101541.21
2018-12-04T14:18:21.876Z,101547.14
2018-12-04T14:20:47.998Z,101549.06
2018-12-04T14:23:14.105Z,101559.57
2018-12-04T14:25:40.223Z,101564.44
2018-12-04T14:28:06.360Z,101567.39
2018-12-04T14:30:32.348Z,101570.94
2018-12-04T14:32:58.303Z,101574.16
2018-12-04T14:35:24.407Z,101577.14
2018-12-04T14:37:50.469Z,101583.08
2018-12-04T14:40:16.588Z,101585.77
2018-12-04T14:42:42.707Z,101592.52
2018-12-04T14:45:08.815Z,101597.08
2018-12-04T14:47:34.840Z,101596.80
2018-12-04T14:50:00.883Z,101592.71
2018-12-04T14:52:27.006Z,101603.77
2018-12-04T14:54:53.101Z,101606.43
2018-12-04T14:57:19.241Z,101608.00
2018-12-04T14:59:45.240Z,101614.43
2018-12-04T15:02:11.208Z,101617.88
2018-12-04T15:04:37.297Z,101623.00
2018-12-04T15:07:03.417Z,101624.84
2018-12-04T15:09:29.477Z,101623.99
2018-12-04T15:11:55.580Z,101631.28
2018-12-04T15:14:21.750Z,101632.34
2018-12-04T15:16:54.750Z,101641.25
2018-12-04T15:19:15.801Z,101650.14
2018-12-04T15:21:41.800Z,101653.09
2018-12-04T15:24:08.013Z,101656.08
2018-12-04T15:26:34.157Z,101663.36
2018-12-04T15:29:00.196Z,101660.91
2018-12-04T15:31:26.305Z,101670.08
2018-12-04T15:33:52.256Z,101676.30
2018-12-04T15:36:18.450Z,101679.00
2018-12-04T15:38:44.600Z,101684.66
2018-12-04T15:41:10.631Z,101688.71
2018-12-04T15:43:36.746Z,101699.52
2018-12-04T15:46:02.809Z,101699.27
2018-12-04T15:48:28.911Z,101704.39
2018-12-04T15:50:59.866Z,101716.02
2018-12-04T15:53:22.978Z,101715.20
2018-12-04T15:55:48.997Z,101714.41
2018-12-04T15:58:15.016Z,101720.60
2018-12-04T16:00:41.072Z,101721.70
2018-12-04T16:04:30.221Z,101726.75
2018-12-04T16:06:56.725Z,101735.72
2018-12-04T16:09:23.174Z,101738.70
2018-12-04T16:11:49.594Z,101744.64
2018-12-04T16:14:16.042Z,101745.17
2018-12-04T16:16:42.628Z,101757.05
2018-12-04T16:19:09.105Z,101757.87
2018-12-04T16:21:35.546Z,101755.70
2018-12-04T16:24:02.181Z,101760.03
2018-12-04T16:26:28.617Z,101756.77
2018-12-04T16:28:55.126Z,101755.03
2018-12-04T16:31:21.577Z,101754.14
2018-12-04T16:33:48.002Z,101763.27
2018-12-04T16:36:14.473Z,101764.84
2018-12-04T16:38:40.953Z,101767.22
2018-12-04T16:41:07.418Z,101764.22
2018-12-04T16:43:33.929Z,101766.59
2018-12-04T16:47:30.089Z,101767.62
2018-12-04T16:49:56.605Z,101770.27
2018-12-04T16:52:23.146Z,101775.92
2018-12-04T16:54:49.595Z,101779.69
2018-12-04T16:57:16.206Z,101790.47
2018-12-04T16:59:42.731Z,101790.96
2018-12-04T17:02:09.209Z,101797.68
2018-12-04T17:04:35.722Z,101803.61
2018-12-04T17:07:02.193Z,101802.75
2018-12-04T17:09:28.671Z,101808.45
2018-12-04T17:11:55.226Z,101809.23
2018-12-04T17:14:21.651Z,101820.83
2018-12-04T17:16:48.189Z,101817.83
2018-12-04T17:19:14.617Z,101812.08
2018-12-04T17:21:41.066Z,101816.91
2018-12-04T17:24:07.578Z,101818.50
2018-12-04T17:28:03.769Z,101825.52
2018-12-04T17:30:30.265Z,101826.81
2018-12-04T17:32:56.685Z,101831.41
2018-12-04T17:35:23.146Z,101834.60
2018-12-04T17:37:49.639Z,101841.08
2018-12-04T17:40:16.094Z,101839.19
2018-12-04T17:42:42.665Z,101841.84
2018-12-04T17:45:09.273Z,101843.72
2018-12-04T17:47:35.806Z,101848.05
2018-12-04T17:50:03.190Z,101852.66
2018-12-04T17:52:29.696Z,101863.52
2018-12-04T17:54:56.105Z,101845.38
2018-12-04T17:57:22.573Z,101859.78
2018-12-04T17:59:49.074Z,101856.84
2018-12-04T18:02:15.550Z,101849.50
2018-12-04T18:04:42.152Z,101841.95
2018-12-04T18:07:08.613Z,101869.31
2018-12-04T18:09:35.122Z,101862.54
2018-12-04T18:12:01.573Z,101863.89
2018-12-04T18:14:28.181Z,101866.33
2018-12-04T18:16:54.641Z,101865.26
2018-12-04T18:19:21.154Z,101871.49
2018-12-04T18:21:47.609Z,101871.49
2018-12-04T18:24:16.294Z,101880.69
2018-12-04T18:26:42.618Z,101877.20
2018-12-04T18:29:09.033Z,101885.89
2018-12-04T18:31:35.482Z,101882.95
2018-12-04T18:34:02.061Z,101886.48
2018-12-04T18:36:28.554Z,101894.35
2018-12-04T18:38:54.965Z,101894.93
2018-12-04T18:41:21.453Z,101896.58
2018-12-04T18:43:47.926Z,101905.52
2018-12-04T18:46:14.493Z,101905.55
2018-12-04T18:48:41.085Z,101910.19
2018-12-04T18:51:07.538Z,101909.13
2018-12-04T19:00:20.022Z,101930.00
2018-12-04T19:02:46.573Z,101922.98
2018-12-04T19:05:13.181Z,101925.72
2018-12-04T19:07:39.722Z,101926.52
2018-12-04T19:10:06.357Z,101934.91
2018-12-04T19:12:32.885Z,101932.23
2018-12-04T19:14:59.306Z,101934.66
2018-12-04T19:17:25.833Z,101940.64
2018-12-04T19:19:52.490Z,101941.75
2018-12-04T19:22:18.957Z,101936.34
2018-12-04T19:24:45.463Z,101943.39
2018-12-04T19:27:12.005Z,101941.78
2018-12-04T19:29:38.521Z,101941.25
2018-12-04T19:32:04.954Z,101946.41
2018-12-04T19:34:31.411Z,101946.69
2018-12-04T19:36:58.030Z,101958.05
2018-12-04T19:39:24.482Z,101955.91
2018-12-04T19:41:51.185Z,101968.87
2018-12-04T19:44:17.646Z,101973.48
2018-12-04T19:46:44.176Z,101977.02
2018-12-04T19:49:10.705Z,101984.84
2018-12-04T19:51:37.126Z,101986.20
2018-12-04T19:54:03.702Z,101990.81
2018-12-04T19:56:30.190Z,101994.05
2018-12-04T19:58:56.642Z,102001.09
2018-12-04T20:01:23.053Z,101995.41
2018-12-04T20:03:49.486Z,101999.46
2018-12-04T20:06:15.919Z,102002.17
2018-12-04T20:08:42.487Z,101999.75
2018-12-04T20:11:09.106Z,102010.84
2018-12-04T20:13:35.569Z,102020.84
2018-12-04T20:16:02.063Z,102016.81
2018-12-04T20:18:28.618Z,102020.06
2018-12-04T20:27:41.165Z,102049.83
2018-12-04T20:30:07.848Z,102049.83
2018-12-04T20:32:34.409Z,102052.00
2018-12-04T20:35:00.877Z,102052.80
2018-12-04T20:37:27.389Z,102050.66
2018-12-04T20:39:53.847Z,102058.22
2018-12-04T20:42:23.405Z,102060.67
2018-12-04T20:44:48.858Z,102067.17
2018-12-04T20:47:15.280Z,102060.41
2018-12-04T20:49:41.727Z,102062.03
2018-12-04T20:52:08.253Z,102072.03
2018-12-04T20:54:34.693Z,102075.83
2018-12-04T20:57:02.140Z,102078.56
2018-12-04T20:59:28.897Z,102083.41
2018-12-04T21:01:55.417Z,102087.20
2018-12-04T21:04:21.862Z,102092.89
2018-12-04T21:06:48.370Z,102092.89
2018-12-04T21:09:14.822Z,102101.28
2018-12-04T21:11:41.245Z,102105.05
2018-12-04T21:14:07.717Z,102110.73
2018-12-04T21:16:34.212Z,102102.89
2018-12-04T21:19:00.637Z,102095.34
2018-12-04T21:21:27.092Z,102101.82
2018-12-04T21:23:53.609Z,102100.22
2018-12-04T21:26:20.054Z,102104.82
2018-12-04T21:28:46.478Z,102106.17
2018-12-04T21:31:12.926Z,102107.23
2018-12-04T21:33:39.434Z,102105.38
2018-12-04T21:36:05.890Z,102106.44
2018-12-04T21:38:32.405Z,102106.97
2018-12-04T21:40:58.849Z,102108.88
2018-12-04T21:43:25.385Z,102102.40
2018-12-04T21:45:51.890Z,102102.67
2018-12-04T21:48:18.333Z,102106.44
2018-12-04T21:50:44.893Z,102108.89
2018-12-04T21:53:11.317Z,102115.65
2018-12-04T21:55:37.753Z,102121.05
2018-12-04T21:58:04.187Z,102122.12
2018-12-04T22:00:30.829Z,102126.17
2018-12-04T22:02:57.246Z,102134.02
2018-12-04T22:05:23.689Z,102136.47
2018-12-04T22:07:50.105Z,102138.35
2018-12-04T22:10:16.675Z,102137.53
2018-12-04T22:12:43.294Z,102136.74
2018-12-04T22:15:09.841Z,102131.33
2018-12-04T22:17:36.379Z,102137.27
2018-12-04T22:20:03.221Z,102135.66
2018-12-04T22:22:29.741Z,102149.98
2018-12-04T22:24:56.261Z,102146.20
2018-12-04T22:27:23.025Z,102151.87
2018-12-04T22:29:49.537Z,102157.27
2018-12-04T22:32:16.897Z,102156.20
2018-12-04T22:34:43.641Z,102161.60
2018-12-04T22:37:10.077Z,102163.20
2018-12-04T22:39:36.487Z,102159.43
2018-12-04T22:42:02.952Z,102161.60
2018-12-04T22:44:29.713Z,102162.70
2018-12-04T22:46:56.318Z,102172.16
2018-12-04T22:49:22.731Z,102167.81
2018-12-04T22:51:49.194Z,102174.31
2018-12-04T22:54:15.809Z,102177.27
2018-12-04T22:56:42.243Z,102179.44
2018-12-04T22:59:08.877Z,102182.67
2018-12-04T23:01:38.275Z,102172.95
2018-12-04T23:04:05.261Z,102179.98
2018-12-04T23:06:31.927Z,102181.59
2018-12-04T23:08:58.649Z,102180.52
2018-12-04T23:11:25.669Z,102177.28
2018-12-04T23:13:52.101Z,102179.70
2018-12-04T23:16:18.522Z,102183.22
2018-12-04T23:18:44.961Z,102182.96
2018-12-04T23:21:11.502Z,102182.67
2018-12-04T23:23:37.929Z,102181.32
2018-12-04T23:26:04.461Z,102188.64
2018-12-04T23:28:30.896Z,102186.72
2018-12-04T23:30:57.317Z,102197.28
2018-12-04T23:33:23.757Z,102195.66
2018-12-04T23:35:50.193Z,102194.31
2018-12-04T23:38:16.633Z,102191.61
2018-12-04T23:40:43.145Z,102189.17
2018-12-04T23:43:09.597Z,102194.31
2018-12-04T23:45:36.125Z,102192.42
2018-12-04T23:48:02.712Z,102192.42
2018-12-04T23:50:29.171Z,102187.55
2018-12-04T23:52:55.731Z,102184.31
2018-12-04T23:55:22.250Z,102185.38
2018-12-04T23:57:48.812Z,102180.26
